Time;durP1;ratioP1;P1;durP2;ratioP2;P2;SDS_P1;SDS_P2;PMS_P1;PMS_P2;Temp;Humidity;BMP_temperature;BMP_pressure;BME280_temperature;BME280_humidity;BME280_pressure;Samples;Min_cycle;Max_cycle;Signal;HPM_P1;HPM_P2
2022/09/17 00:02:30;;;;;;;21.88;2.58;;;;;;;9.99;100.00;100968.63;5075816;28;20040;-76
2022/09/17 00:04:56;;;;;;;23.13;2.38;;;;;;;9.96;100.00;100982.53;5055111;28;20029;-75
2022/09/17 00:07:27;;;;;;;15.93;2.58;;;;;;;9.92;100.00;100972.81;5052863;28;20032;-76
2022/09/17 00:09:53;;;;;;;26.63;2.60;;;;;;;9.97;100.00;100983.38;5075311;28;20392;-76
2022/09/17 00:12:20;;;;;;;28.48;3.55;;;;;;;9.91;100.00;100977.41;5074652;28;20037;-76
2022/09/17 00:14:57;;;;;;;19.33;2.60;;;;;;;9.96;100.00;100978.94;5045350;28;20096;-77
2022/09/17 00:17:32;;;;;;;16.40;1.85;;;;;;;9.90;100.00;100978.41;5074162;28;20055;-77
2022/09/17 00:20:03;;;;;;;25.45;3.03;;;;;;;9.93;100.00;100982.75;5059650;28;20124;-76
2022/09/17 00:22:38;;;;;;;24.20;1.92;;;;;;;9.99;100.00;100979.56;5075150;28;20480;-76
2022/09/17 00:25:07;;;;;;;34.30;2.85;;;;;;;9.99;100.00;100982.31;5074868;28;20032;-77
2022/09/17 00:27:41;;;;;;;28.50;2.45;;;;;;;10.08;100.00;100987.09;5066801;28;20089;-76
2022/09/17 00:30:08;;;;;;;22.73;3.83;;;;;;;10.09;100.00;100993.44;5058230;28;20131;-77
2022/09/17 00:32:52;;;;;;;23.95;2.75;;;;;;;10.08;100.00;100989.84;5056131;28;20392;-76
2022/09/17 00:35:25;;;;;;;30.35;4.75;;;;;;;10.16;100.00;100996.56;5062779;28;20056;-77
2022/09/17 00:37:51;;;;;;;24.30;1.75;;;;;;;10.18;100.00;100992.72;5077660;28;20038;-77
2022/09/17 00:40:22;;;;;;;21.90;2.15;;;;;;;10.20;100.00;100996.25;5079442;28;20101;-77
2022/09/17 00:42:52;;;;;;;21.35;2.17;;;;;;;10.18;100.00;100989.97;5077725;28;20399;-77
2022/09/17 00:45:30;;;;;;;21.38;2.58;;;;;;;10.20;100.00;101000.81;5064978;28;20089;-77
2022/09/17 00:48:04;;;;;;;26.13;2.65;;;;;;;10.24;100.00;101007.81;5070828;28;20028;-76
2022/09/17 00:50:40;;;;;;;25.33;2.13;;;;;;;10.20;100.00;101003.56;5095173;28;20035;-76
2022/09/17 00:53:20;;;;;;;33.25;2.65;;;;;;;10.21;100.00;101008.06;5059963;28;20143;-76
2022/09/17 00:56:03;;;;;;;26.38;3.20;;;;;;;10.21;100.00;100997.09;5077161;28;20031;-76
2022/09/17 00:58:32;;;;;;;21.77;1.83;;;;;;;10.20;100.00;101007.19;5062731;28;20028;-76
2022/09/17 01:01:06;;;;;;;26.65;2.15;;;;;;;10.28;100.00;101006.59;5087703;28;20032;-76
2022/09/17 01:03:37;;;;;;;25.00;2.90;;;;;;;10.32;100.00;101013.63;5058512;28;20030;-76
2022/09/17 01:06:44;;;;;;;24.70;1.67;;;;;;;10.28;100.00;101018.44;5075829;28;20033;-76
2022/09/17 01:09:41;;;;;;;24.92;2.63;;;;;;;10.30;100.00;101010.09;5067443;28;20063;-77
2022/09/17 01:12:28;;;;;;;20.05;1.88;;;;;;;10.34;100.00;101008.03;5093950;28;20449;-76
2022/09/17 01:15:27;;;;;;;15.52;1.90;;;;;;;10.34;100.00;101017.09;5076879;28;20028;-76
2022/09/17 01:18:20;;;;;;;30.27;2.15;;;;;;;10.33;100.00;101012.66;5093133;28;20493;-76
2022/09/17 01:21:19;;;;;;;22.00;1.80;;;;;;;10.28;100.00;101017.53;5081816;28;20032;-76
2022/09/17 01:24:07;;;;;;;24.10;2.10;;;;;;;10.23;100.00;101017.00;5083172;28;20032;-76
2022/09/17 01:26:53;;;;;;;12.85;1.52;;;;;;;10.19;100.00;101021.84;5055672;28;20178;-76
2022/09/17 01:29:46;;;;;;;21.83;2.15;;;;;;;10.17;100.00;101028.44;5072633;28;20032;-76
2022/09/17 01:33:12;;;;;;;18.52;2.17;;;;;;;10.15;100.00;101024.91;5066740;28;20077;-76
2022/09/17 01:36:14;;;;;;;27.88;1.75;;;;;;;10.08;100.00;101030.88;4978138;28;20038;-76
2022/09/17 01:38:56;;;;;;;15.93;1.85;;;;;;;10.10;100.00;101026.16;5045425;28;20040;-76
2022/09/17 01:41:49;;;;;;;16.40;1.80;;;;;;;10.10;100.00;101030.72;5060799;28;20039;-77
2022/09/17 01:44:44;;;;;;;48.65;3.67;;;;;;;10.14;100.00;101039.59;5077664;28;20028;-76
2022/09/17 01:47:18;;;;;;;16.40;1.40;;;;;;;10.16;100.00;101035.75;5069625;28;20036;-76
2022/09/17 01:50:10;;;;;;;20.65;1.50;;;;;;;10.18;100.00;101041.09;5061040;28;20035;-76
2022/09/17 01:52:39;;;;;;;17.45;1.10;;;;;;;10.16;100.00;101040.34;5089535;28;20028;-76
2022/09/17 01:55:14;;;;;;;28.88;2.78;;;;;;;10.18;100.00;101036.50;5094860;28;20069;-76
2022/09/17 01:57:52;;;;;;;17.30;1.88;;;;;;;10.16;100.00;101038.47;5060185;28;20385;-76
2022/09/17 02:00:26;;;;;;;24.25;1.92;;;;;;;10.18;100.00;101032.91;5058253;28;20065;-76
2022/09/17 02:03:04;;;;;;;11.35;2.42;;;;;;;10.17;100.00;101040.25;5075486;28;20071;-75
2022/09/17 02:06:03;;;;;;;19.45;1.65;;;;;;;10.13;100.00;101044.19;5075884;28;20107;-75
2022/09/17 02:08:47;;;;;;;26.02;1.92;;;;;;;10.03;100.00;101041.25;5090509;28;20036;-75
2022/09/17 02:11:16;;;;;;;20.48;1.92;;;;;;;10.09;100.00;101051.75;5075733;28;20429;-75
2022/09/17 02:13:58;;;;;;;24.48;2.05;;;;;;;10.09;100.00;101050.88;5056822;28;20036;-76
2022/09/17 02:16:29;;;;;;;;;;;;;;;10.09;100.00;101048.16;5072814;28;20387;-75
2022/09/17 02:19:01;;;;;;;25.33;2.83;;;;;;;10.07;100.00;101040.06;5087679;28;19915;-75
2022/09/17 02:21:45;;;;;;;19.00;2.50;;;;;;;10.05;100.00;101052.09;5065910;28;20123;-75
2022/09/17 02:24:30;;;;;;;18.08;1.38;;;;;;;10.01;100.00;101047.84;5081853;28;20475;-75
2022/09/17 02:27:05;;;;;;;17.45;1.25;;;;;;;9.98;100.00;101048.94;5062755;28;20440;-76
2022/09/17 02:29:38;;;;;;;19.02;1.20;;;;;;;10.00;100.00;101051.56;5089095;28;20043;-75
2022/09/17 02:32:06;;;;;;;19.90;1.48;;;;;;;10.00;100.00;101055.19;5087783;28;20043;-75
2022/09/17 02:34:34;;;;;;;12.32;1.63;;;;;;;10.00;100.00;101057.91;5041047;28;20123;-75
2022/09/17 02:37:03;;;;;;;12.77;1.17;;;;;;;9.94;100.00;101058.38;5070265;28;20062;-75
2022/09/17 02:39:33;;;;;;;25.92;1.50;;;;;;;9.97;100.00;101058.16;5074420;28;20039;-76
2022/09/17 02:42:25;;;;;;;18.42;1.65;;;;;;;10.02;100.00;101065.97;5070788;28;20119;-76
2022/09/17 02:45:11;;;;;;;15.27;1.30;;;;;;;10.03;100.00;101073.22;5055032;28;20028;-75
2022/09/17 02:47:55;;;;;;;28.75;3.38;;;;;;;10.00;100.00;101074.34;5053880;28;20025;-76
2022/09/17 02:50:51;;;;;;;29.85;2.90;;;;;;;10.03;100.00;101070.47;5053328;28;20556;-75
2022/09/17 02:53:39;;;;;;;13.40;1.30;;;;;;;10.09;100.00;101067.31;5060878;28;20103;-76
2022/09/17 02:56:14;;;;;;;17.35;1.40;;;;;;;10.06;100.00;101060.19;5068003;28;20055;-76
2022/09/17 02:58:56;;;;;;;45.15;1.95;;;;;;;10.12;100.00;101067.06;5088309;28;20415;-76
2022/09/17 03:01:33;;;;;;;15.00;1.50;;;;;;;10.08;100.00;101062.81;5087243;28;20036;-76
2022/09/17 03:04:03;;;;;;;27.95;2.38;;;;;;;10.03;100.00;101059.53;5080072;28;20028;-76
2022/09/17 03:06:29;;;;;;;23.10;1.50;;;;;;;9.99;100.00;101058.91;5042960;28;20016;-76
2022/09/17 03:08:56;;;;;;;23.85;1.75;;;;;;;9.97;100.00;101057.25;5054904;28;20060;-75
2022/09/17 03:11:22;;;;;;;24.05;1.90;;;;;;;10.00;100.00;101062.50;5069896;28;20036;-76
2022/09/17 03:13:57;;;;;;;22.45;1.70;;;;;;;9.98;100.00;101062.59;5057654;28;20044;-76
2022/09/17 03:16:23;;;;;;;23.73;1.90;;;;;;;9.98;100.00;101065.34;5054955;28;20041;-75
2022/09/17 03:19:05;;;;;;;13.57;2.00;;;;;;;10.00;100.00;101057.03;5047283;28;20038;-76
2022/09/17 03:21:36;;;;;;;29.42;1.70;;;;;;;10.09;100.00;101062.69;5071540;28;20129;-76
2022/09/17 03:24:02;;;;;;;23.10;1.35;;;;;;;10.08;100.00;101060.97;5055268;28;20067;-76
2022/09/17 03:26:29;;;;;;;15.13;1.30;;;;;;;10.09;100.00;101057.22;5051346;28;20476;-76
2022/09/17 03:28:57;;;;;;;25.63;1.88;;;;;;;10.18;100.00;101052.06;5071468;28;20040;-76
2022/09/17 03:31:27;;;;;;;19.15;1.98;;;;;;;10.17;100.00;101053.06;5054687;28;20476;-76
2022/09/17 03:33:57;;;;;;;26.52;1.65;;;;;;;10.18;100.00;101054.78;5078309;28;20114;-76
2022/09/17 03:36:24;;;;;;;19.48;1.80;;;;;;;10.15;100.00;101050.44;5090049;28;20859;-76
2022/09/17 03:39:00;;;;;;;18.95;1.30;;;;;;;10.19;100.00;101053.81;5069711;28;20471;-76
2022/09/17 03:41:26;;;;;;;20.73;1.48;;;;;;;10.17;100.00;101061.28;5084875;28;20030;-75
2022/09/17 03:43:53;;;;;;;32.25;3.00;;;;;;;10.14;100.00;101058.75;5041367;28;20032;-76
2022/09/17 03:46:20;;;;;;;23.60;1.50;;;;;;;10.09;100.00;101064.56;5071597;28;20043;-76
2022/09/17 03:48:46;;;;;;;25.55;1.85;;;;;;;9.98;100.00;101059.88;5073162;28;20452;-76
2022/09/17 03:51:13;;;;;;;22.30;1.65;;;;;;;9.97;100.00;101065.44;5084811;28;20032;-76
2022/09/17 03:53:46;;;;;;;16.98;1.60;;;;;;;9.94;100.00;101074.78;5057891;28;20029;-75
2022/09/17 03:56:20;;;;;;;20.55;1.98;;;;;;;9.92;100.00;101079.50;5062238;28;20500;-76
2022/09/17 03:58:59;;;;;;;15.52;2.42;;;;;;;9.91;100.00;101075.84;5076170;28;20062;-76
2022/09/17 04:01:35;;;;;;;21.35;1.25;;;;;;;9.94;100.00;101070.16;5072810;28;20035;-75
2022/09/17 04:04:07;;;;;;;16.77;1.58;;;;;;;9.96;100.00;101055.53;5074026;28;20102;-76
2022/09/17 04:06:33;;;;;;;20.30;1.90;;;;;;;10.02;100.00;101058.66;5068135;28;20067;-76
2022/09/17 04:09:03;;;;;;;19.98;2.20;;;;;;;10.04;100.00;101059.44;5081151;28;20093;-76
2022/09/17 04:11:48;;;;;;;19.65;1.60;;;;;;;10.11;100.00;101068.91;5079920;28;20084;-76
2022/09/17 04:14:19;;;;;;;30.30;1.83;;;;;;;10.10;100.00;101069.94;5072868;28;20082;-76
2022/09/17 04:16:48;;;;;;;30.77;1.98;;;;;;;10.14;100.00;101072.44;5035858;28;20082;-76
2022/09/17 04:19:20;;;;;;;26.15;2.42;;;;;;;10.18;100.00;101080.28;5085253;28;20032;-76
2022/09/17 04:21:51;;;;;;;23.67;2.67;;;;;;;10.17;100.00;101083.16;5074364;28;20031;-76
2022/09/17 04:24:23;;;;;;;21.58;1.33;;;;;;;10.22;100.00;101102.84;5075733;28;20056;-76
2022/09/17 04:26:51;;;;;;;21.60;1.80;;;;;;;10.21;100.00;101095.59;5029676;28;20028;-76
2022/09/17 04:29:17;;;;;;;20.92;2.00;;;;;;;10.24;100.00;101093.50;5060551;28;20127;-76
2022/09/17 04:31:47;;;;;;;30.17;1.90;;;;;;;10.20;100.00;101094.75;5077925;28;20033;-75
2022/09/17 04:34:30;;;;;;;23.92;1.67;;;;;;;10.08;100.00;101073.75;5051534;28;20048;-77
2022/09/17 04:36:56;;;;;;;22.65;1.90;;;;;;;10.09;100.00;101070.03;5065477;28;20037;-76
2022/09/17 04:39:22;;;;;;;22.27;1.48;;;;;;;10.16;100.00;101067.72;5035733;28;20480;-76
2022/09/17 04:41:50;;;;;;;17.48;1.42;;;;;;;10.07;100.00;101058.34;5068020;28;20036;-76
2022/09/17 04:44:16;;;;;;;14.30;1.35;;;;;;;10.04;100.00;101070.38;5074808;28;20033;-76
2022/09/17 04:46:41;;;;;;;18.48;1.42;;;;;;;9.91;100.00;101075.84;5052484;28;20365;-76
2022/09/17 04:49:12;;;;;;;12.85;1.25;;;;;;;9.89;100.00;101085.19;5029484;28;20033;-76
2022/09/17 04:51:42;;;;;;;18.00;1.80;;;;;;;9.80;100.00;101083.97;5071189;28;20037;-76
2022/09/17 04:54:08;;;;;;;21.02;1.40;;;;;;;9.77;100.00;101095.13;5073780;28;20093;-76
2022/09/17 04:56:35;;;;;;;24.55;1.50;;;;;;;9.73;100.00;101090.88;5060475;28;20101;-76
2022/09/17 04:59:05;;;;;;;17.90;1.40;;;;;;;9.68;100.00;101088.47;5067811;28;20029;-76
2022/09/17 05:01:33;;;;;;;11.73;1.38;;;;;;;9.67;100.00;101096.78;5069993;28;20032;-76
2022/09/17 05:04:02;;;;;;;44.13;2.67;;;;;;;9.65;100.00;101096.88;5069650;28;20056;-76
2022/09/17 05:06:33;;;;;;;33.72;1.55;;;;;;;9.64;100.00;101094.25;5049741;28;20110;-77
2022/09/17 05:09:02;;;;;;;12.45;1.17;;;;;;;9.60;100.00;101104.53;5073712;28;20036;-76
2022/09/17 05:11:36;;;;;;;28.50;2.03;;;;;;;9.57;100.00;101099.28;5075758;28;20400;-77
2022/09/17 05:14:02;;;;;;;23.25;2.03;;;;;;;9.53;100.00;101103.25;5069658;28;20044;-76
2022/09/17 05:16:32;;;;;;;16.83;1.75;;;;;;;9.44;100.00;101095.69;5050335;28;20480;-75
2022/09/17 05:19:07;;;;;;;29.02;2.83;;;;;;;9.52;100.00;101102.34;5072325;28;20044;-75
2022/09/17 05:21:33;;;;;;;21.55;1.52;;;;;;;9.51;100.00;101106.06;5041451;28;20060;-76
2022/09/17 05:24:01;;;;;;;18.80;1.73;;;;;;;9.45;100.00;101101.03;5072458;28;20029;-76
2022/09/17 05:26:34;;;;;;;13.75;2.13;;;;;;;9.54;100.00;101113.16;5043031;28;20043;-75
2022/09/17 05:29:13;;;;;;;24.90;1.90;;;;;;;9.53;100.00;101117.78;5068154;28;20357;-77
2022/09/17 05:31:51;;;;;;;26.63;1.65;;;;;;;9.52;100.00;101120.63;5067090;28;20113;-75
2022/09/17 05:34:26;;;;;;;15.65;1.58;;;;;;;9.52;100.00;101110.53;5050827;28;20066;-76
2022/09/17 05:36:53;;;;;;;30.52;1.85;;;;;;;9.53;100.00;101122.38;5036280;28;20033;-75
2022/09/17 05:39:37;;;;;;;;;;;;;;;9.56;100.00;101120.28;5066989;28;20044;-76
2022/09/17 05:42:03;;;;;;;18.35;1.60;;;;;;;9.54;100.00;101119.53;5087491;28;19956;-76
2022/09/17 05:44:29;;;;;;;28.55;1.95;;;;;;;9.51;100.00;101118.84;5048937;28;20492;-76
2022/09/17 05:46:54;;;;;;;23.63;1.80;;;;;;;9.60;100.00;101126.41;5073588;28;20037;-76
2022/09/17 05:49:20;;;;;;;21.70;1.65;;;;;;;9.59;100.00;101137.44;5063990;28;20033;-77
2022/09/17 05:51:47;;;;;;;42.88;2.58;;;;;;;9.56;100.00;101130.34;5047748;28;20044;-75
2022/09/17 05:54:17;;;;;;;34.03;3.15;;;;;;;9.56;100.00;101119.44;5050141;28;20121;-75
2022/09/17 05:56:52;;;;;;;21.33;1.47;;;;;;;9.65;100.00;101132.44;5053801;28;20035;-75
2022/09/17 05:59:22;;;;;;;25.90;2.28;;;;;;;9.68;100.00;101124.00;5062037;28;20056;-75
2022/09/17 06:01:49;;;;;;;26.92;2.15;;;;;;;9.70;100.00;101130.22;5037892;28;20111;-75
2022/09/17 06:04:25;;;;;;;17.15;1.33;;;;;;;9.72;100.00;101121.91;5071108;28;20037;-76
2022/09/17 06:06:55;;;;;;;17.02;1.13;;;;;;;9.91;100.00;101135.16;5042893;28;20029;-75
2022/09/17 06:09:24;;;;;;;23.48;2.08;;;;;;;9.92;100.00;101136.94;5037232;28;20036;-76
2022/09/17 06:11:50;;;;;;;30.33;2.75;;;;;;;9.86;100.00;101130.03;5059951;28;20388;-76
2022/09/17 06:14:17;;;;;;;34.33;2.25;;;;;;;10.08;100.00;101140.31;5066883;28;20044;-76
2022/09/17 06:16:46;;;;;;;26.52;1.83;;;;;;;10.23;100.00;101148.34;5050435;28;20037;-76
2022/09/17 06:19:15;;;;;;;17.45;1.70;;;;;;;10.28;100.00;101146.16;5035968;28;20487;-76
2022/09/17 06:21:41;;;;;;;20.77;2.03;;;;;;;10.36;100.00;101146.50;5051116;28;20048;-77
2022/09/17 06:24:09;;;;;;;20.65;2.30;;;;;;;10.47;100.00;101152.06;5049244;28;20480;-77
2022/09/17 06:26:51;;;;;;;23.33;2.90;;;;;;;10.54;100.00;101159.81;5067407;28;20031;-76
2022/09/17 06:29:17;;;;;;;14.23;1.95;;;;;;;10.60;100.00;101159.38;5059196;28;20476;-76
2022/09/17 06:31:53;;;;;;;19.80;2.30;;;;;;;10.55;100.00;101159.72;5064823;28;20492;-76
2022/09/17 06:34:28;;;;;;;27.10;2.92;;;;;;;10.63;100.00;101164.63;5055947;28;20392;-76
2022/09/17 06:37:03;;;;;;;18.20;1.45;;;;;;;10.62;100.00;101163.72;5058227;28;20035;-75
2022/09/17 06:39:33;;;;;;;15.70;1.38;;;;;;;10.78;100.00;101166.22;5057432;28;20082;-76
2022/09/17 06:42:02;;;;;;;19.70;2.58;;;;;;;10.68;100.00;101162.41;5040975;28;20037;-75
2022/09/17 06:44:27;;;;;;;28.20;2.22;;;;;;;10.66;100.00;101168.00;5049476;28;20061;-74
2022/09/17 06:46:54;;;;;;;13.57;1.55;;;;;;;10.70;100.00;101167.78;5078356;28;20044;-75
2022/09/17 06:49:21;;;;;;;21.10;1.48;;;;;;;10.78;100.00;101155.25;5074327;28;20047;-75
2022/09/17 06:51:53;;;;;;;27.85;2.75;;;;;;;10.71;100.00;101156.72;5047702;28;20468;-76
2022/09/17 06:54:30;;;;;;;27.52;2.15;;;;;;;10.89;100.00;101151.72;5036036;28;20048;-75
2022/09/17 06:57:02;;;;;;;14.88;1.50;;;;;;;10.91;100.00;101146.97;5068378;28;20475;-76
2022/09/17 06:59:42;;;;;;;17.20;1.35;;;;;;;10.96;100.00;101149.38;5043470;28;20037;-76
2022/09/17 07:02:15;;;;;;;22.50;1.73;;;;;;;11.03;100.00;101162.50;5046471;28;20041;-76
2022/09/17 07:04:44;;;;;;;32.10;1.70;;;;;;;11.10;100.00;101154.69;5059953;28;20039;-76
2022/09/17 07:07:23;;;;;;;29.25;1.88;;;;;;;11.38;100.00;101150.69;5052502;28;20036;-77
2022/09/17 07:09:52;;;;;;;29.58;4.00;;;;;;;11.58;100.00;101154.59;5071498;28;20078;-76
2022/09/17 07:12:26;;;;;;;27.83;2.42;;;;;;;11.92;100.00;101160.19;5062463;28;20037;-76
2022/09/17 07:14:58;;;;;;;17.73;1.40;;;;;;;11.97;100.00;101161.66;5067658;28;20407;-77
2022/09/17 07:17:24;;;;;;;20.20;1.55;;;;;;;11.67;100.00;101163.94;5059149;28;20122;-76
2022/09/17 07:19:59;;;;;;;15.65;1.40;;;;;;;11.47;100.00;101161.91;5053738;28;20035;-76
2022/09/17 07:22:25;;;;;;;19.05;1.77;;;;;;;11.52;100.00;101166.03;5031659;28;20028;-77
2022/09/17 07:24:57;;;;;;;16.70;3.47;;;;;;;11.57;100.00;101166.53;5048479;28;20032;-76
2022/09/17 07:27:26;;;;;;;16.30;1.38;;;;;;;11.67;100.00;101163.94;5068221;28;20135;-75
2022/09/17 07:29:53;;;;;;;18.77;2.05;;;;;;;11.74;100.00;101164.34;5051897;28;20021;-76
2022/09/17 07:32:22;;;;;;;28.75;1.63;;;;;;;11.94;100.00;101165.56;5079194;28;20790;-76
2022/09/17 07:34:53;;;;;;;10.00;0.93;;;;;;;11.73;100.00;101162.63;5068768;28;20051;-76
2022/09/17 07:37:20;;;;;;;13.02;1.63;;;;;;;11.96;100.00;101163.56;5058946;28;20032;-75
2022/09/17 07:39:45;;;;;;;20.10;1.05;;;;;;;12.13;100.00;101165.81;5056139;28;20040;-76
2022/09/17 07:42:17;;;;;;;17.55;1.25;;;;;;;12.15;100.00;101165.69;5040769;28;20063;-76
2022/09/17 07:44:46;;;;;;;12.45;1.30;;;;;;;12.29;100.00;101156.31;5066556;28;20519;-75
2022/09/17 07:47:22;;;;;;;12.57;1.02;;;;;;;12.74;100.00;101159.03;5044538;28;20124;-76
2022/09/17 07:50:02;;;;;;;5.57;0.80;;;;;;;12.73;100.00;101168.25;5051145;28;20051;-76
2022/09/17 07:52:35;;;;;;;9.13;1.27;;;;;;;12.97;100.00;101167.19;5060942;28;20033;-76
2022/09/17 07:55:01;;;;;;;6.40;0.93;;;;;;;13.24;100.00;101175.84;5059196;28;20037;-76
2022/09/17 07:57:30;;;;;;;4.85;0.70;;;;;;;13.39;100.00;101172.81;5068350;28;20021;-76
2022/09/17 07:59:56;;;;;;;8.68;1.13;;;;;;;13.49;100.00;101175.66;5051172;28;20051;-77
2022/09/17 08:02:24;;;;;;;15.55;1.13;;;;;;;13.69;100.00;101176.66;5060999;28;20408;-76
2022/09/17 08:04:50;;;;;;;8.57;0.73;;;;;;;14.15;100.00;101183.66;5064209;28;20037;-76
2022/09/17 08:07:23;;;;;;;7.97;1.10;;;;;;;13.52;100.00;101180.91;5049444;28;20043;-76
2022/09/17 08:09:50;;;;;;;8.45;0.80;;;;;;;13.06;100.00;101180.19;5064789;28;20432;-76
2022/09/17 08:12:18;;;;;;;5.38;0.90;;;;;;;12.93;100.00;101177.59;5064645;28;20135;-76
2022/09/17 08:14:49;;;;;;;15.13;1.10;;;;;;;13.14;100.00;101176.78;5050351;28;20087;-76
2022/09/17 08:17:17;;;;;;;15.65;1.33;;;;;;;13.09;100.00;101179.91;5043868;28;20596;-77
2022/09/17 08:19:45;;;;;;;8.88;0.90;;;;;;;12.87;100.00;101175.34;5072012;28;20052;-76
2022/09/17 08:22:14;;;;;;;8.13;0.82;;;;;;;13.79;100.00;101188.66;5046086;28;20087;-76
2022/09/17 08:24:41;;;;;;;11.25;0.98;;;;;;;14.25;100.00;101183.66;5061037;28;20033;-76
2022/09/17 08:27:08;;;;;;;6.15;0.80;;;;;;;14.46;100.00;101190.03;5068261;28;20032;-76
2022/09/17 08:29:34;;;;;;;10.10;0.90;;;;;;;14.74;100.00;101181.13;5058887;28;20048;-76
2022/09/17 08:32:06;;;;;;;13.73;0.80;;;;;;;14.45;100.00;101196.53;5055667;28;20028;-76
2022/09/17 08:34:39;;;;;;;9.57;0.90;;;;;;;13.85;100.00;101193.59;5080999;28;20407;-76
2022/09/17 08:37:07;;;;;;;17.17;1.27;;;;;;;13.44;100.00;101205.44;5077801;28;20484;-76
2022/09/17 08:39:33;;;;;;;11.38;1.20;;;;;;;13.08;100.00;101205.66;5027796;28;20029;-76
2022/09/17 08:42:16;;;;;;;14.85;0.73;;;;;;;12.71;100.00;101196.84;5038853;28;20037;-76
2022/09/17 08:44:46;;;;;;;10.20;1.00;;;;;;;12.95;100.00;101192.06;5058516;28;20070;-76
2022/09/17 08:47:35;;;;;;;6.70;0.73;;;;;;;12.80;100.00;101191.47;5069182;28;20029;-76
2022/09/17 08:50:05;;;;;;;9.32;0.90;;;;;;;13.47;100.00;101188.69;5075222;28;20045;-76
2022/09/17 08:53:10;;;;;;;7.57;0.80;;;;;;;14.34;100.00;101191.97;5084045;28;20074;-76
2022/09/17 08:55:49;;;;;;;17.73;1.95;;;;;;;14.78;100.00;101190.88;5088708;28;20032;-76
2022/09/17 08:58:27;;;;;;;8.27;0.90;;;;;;;15.30;100.00;101183.28;5079589;28;20028;-76
2022/09/17 09:00:54;;;;;;;15.32;1.17;;;;;;;15.85;100.00;101190.97;5073243;28;20036;-76
2022/09/17 09:03:54;;;;;;;7.43;1.08;;;;;;;15.90;100.00;101196.91;5089652;28;20028;-76
2022/09/17 09:06:28;;;;;;;14.10;1.00;;;;;;;15.87;100.00;101185.31;5084584;28;20028;-76
2022/09/17 09:09:08;;;;;;;12.75;1.20;;;;;;;15.65;100.00;101184.59;5089122;28;20094;-76
2022/09/17 09:11:35;;;;;;;8.15;1.02;;;;;;;16.37;100.00;101189.69;5085602;28;20028;-76
2022/09/17 09:14:11;;;;;;;10.43;0.70;;;;;;;16.44;100.00;101196.34;5052865;28;20503;-76
2022/09/17 09:16:45;;;;;;;9.10;1.00;;;;;;;16.06;100.00;101182.50;5085000;28;20036;-76
2022/09/17 09:19:16;;;;;;;9.50;1.10;;;;;;;17.20;100.00;101189.69;5064316;28;20387;-76
2022/09/17 09:21:54;;;;;;;7.35;0.80;;;;;;;16.31;100.00;101185.63;5081777;28;20033;-76
2022/09/17 09:24:40;;;;;;;11.77;0.90;;;;;;;15.39;100.00;101192.56;5072825;28;20027;-76
2022/09/17 09:27:24;;;;;;;11.30;0.90;;;;;;;15.83;100.00;101186.63;5066292;28;20036;-75
2022/09/17 09:30:08;;;;;;;8.95;1.17;;;;;;;15.94;100.00;101187.34;5084219;28;20119;-76
2022/09/17 09:32:56;;;;;;;4.32;0.70;;;;;;;15.82;100.00;101190.41;5071915;28;20031;-76
2022/09/17 09:35:40;;;;;;;10.85;0.70;;;;;;;15.88;100.00;101176.88;5079287;28;20472;-75
2022/09/17 09:38:08;;;;;;;9.85;0.88;;;;;;;15.42;100.00;101187.63;5066818;28;20024;-75
2022/09/17 09:40:53;;;;;;;16.42;0.90;;;;;;;15.22;100.00;101185.91;5091505;28;20038;-75
2022/09/17 09:43:39;;;;;;;10.00;0.88;;;;;;;14.89;100.00;101193.53;5081421;28;20090;-76
2022/09/17 09:46:29;;;;;;;13.23;0.88;;;;;;;14.38;100.00;101183.44;5074910;28;20051;-74
2022/09/17 09:49:03;;;;;;;11.65;1.52;;;;;;;14.27;100.00;101187.19;5074543;28;20036;-75
2022/09/17 09:51:57;;;;;;;7.88;0.70;;;;;;;14.29;100.00;101182.41;5086095;28;20039;-75
2022/09/17 09:54:41;;;;;;;7.20;1.27;;;;;;;14.64;100.00;101178.34;5094793;28;20034;-75
2022/09/17 09:57:18;;;;;;;7.90;0.85;;;;;;;15.00;100.00;101185.16;5090588;28;20035;-75
2022/09/17 10:00:21;;;;;;;6.10;0.93;;;;;;;14.55;100.00;101184.69;5072758;28;20093;-75
2022/09/17 10:02:52;;;;;;;7.32;0.90;;;;;;;14.12;100.00;101183.91;5081982;28;20537;-75
2022/09/17 10:05:23;;;;;;;5.57;1.20;;;;;;;14.37;100.00;101187.22;5082628;28;20053;-75
2022/09/17 10:07:54;;;;;;;3.75;0.60;;;;;;;14.58;100.00;101185.28;5089835;28;20509;-75
2022/09/17 10:10:20;;;;;;;6.50;0.80;;;;;;;15.01;100.00;101191.53;5073467;28;20032;-75
2022/09/17 10:13:06;;;;;;;9.40;1.95;;;;;;;14.85;100.00;101186.53;5063016;28;20035;-75
2022/09/17 10:15:36;;;;;;;2.42;0.40;;;;;;;14.70;100.00;101188.81;5076284;28;20104;-75
2022/09/17 10:18:16;;;;;;;8.00;0.60;;;;;;;15.02;100.00;101176.69;5072725;28;20138;-75
2022/09/17 10:20:51;;;;;;;5.25;0.55;;;;;;;15.57;100.00;101178.91;5075654;28;20034;-75
2022/09/17 10:23:17;;;;;;;8.07;0.85;;;;;;;16.11;100.00;101185.69;5092876;28;20040;-75
2022/09/17 10:25:44;;;;;;;8.55;0.50;;;;;;;16.29;100.00;101187.69;5059049;28;20051;-76
2022/09/17 10:28:30;;;;;;;5.65;0.70;;;;;;;15.78;100.00;101193.47;5086368;28;20109;-76
2022/09/17 10:31:09;;;;;;;5.00;0.50;;;;;;;15.46;100.00;101195.63;5087873;28;20050;-75
2022/09/17 10:33:56;;;;;;;5.28;0.85;;;;;;;15.53;100.00;101183.88;5072338;28;20361;-76
2022/09/17 10:36:41;;;;;;;6.20;0.73;;;;;;;15.91;100.00;101179.34;5085497;28;20495;-76
2022/09/17 10:39:26;;;;;;;6.78;0.50;;;;;;;16.40;100.00;101181.97;5071205;28;20043;-77
2022/09/17 10:42:10;;;;;;;7.90;0.63;;;;;;;16.23;100.00;101167.03;5076775;28;20047;-77
2022/09/17 10:44:38;;;;;;;5.13;0.43;;;;;;;16.62;100.00;101161.34;5073840;28;20032;-77
2022/09/17 10:47:14;;;;;;;10.13;0.50;;;;;;;16.83;100.00;101157.44;5073778;28;20440;-77
2022/09/17 10:50:14;;;;;;;7.32;0.55;;;;;;;16.72;100.00;101173.25;5075573;28;20042;-76
2022/09/17 10:52:54;;;;;;;4.75;1.67;;;;;;;16.64;100.00;101170.38;5061613;28;20118;-76
2022/09/17 10:55:34;;;;;;;1.75;0.40;;;;;;;16.57;100.00;101173.91;5069385;28;20017;-77
2022/09/17 10:58:08;;;;;;;2.13;0.63;;;;;;;16.96;100.00;101165.41;5068607;28;20110;-76
2022/09/17 11:01:17;;;;;;;6.90;0.47;;;;;;;16.52;100.00;101163.28;5085874;28;20554;-76
2022/09/17 11:03:59;;;;;;;3.47;0.70;;;;;;;16.37;100.00;101168.44;5073793;28;20028;-76
2022/09/17 11:07:08;;;;;;;4.47;0.40;;;;;;;16.53;100.00;101170.56;5074261;28;20464;-76
2022/09/17 11:10:09;;;;;;;1.17;0.40;;;;;;;16.71;100.00;101165.09;5057330;28;20425;-76
2022/09/17 11:12:47;;;;;;;5.80;0.77;;;;;;;16.71;100.00;101167.88;5087378;28;20032;-78
2022/09/17 11:15:39;;;;;;;1.45;0.40;;;;;;;16.21;100.00;101168.22;5083235;28;20023;-77
2022/09/17 11:18:45;;;;;;;1.90;0.30;;;;;;;16.45;100.00;101148.34;5081932;28;20032;-76
2022/09/17 11:21:31;;;;;;;1.13;0.30;;;;;;;16.58;100.00;101150.72;5064115;28;20033;-77
2022/09/17 11:24:19;;;;;;;2.35;0.40;;;;;;;16.63;100.00;101157.56;5055679;28;20082;-77
2022/09/17 11:27:02;;;;;;;1.05;0.32;;;;;;;16.68;100.00;101163.50;5052036;28;20542;-76
2022/09/17 11:29:49;;;;;;;2.97;0.30;;;;;;;16.69;100.00;101156.06;5054253;28;20490;-77
2022/09/17 11:32:46;;;;;;;3.75;0.40;;;;;;;17.12;100.00;101150.88;5052104;28;20482;-76
2022/09/17 11:35:35;;;;;;;6.38;0.60;;;;;;;16.18;100.00;101150.03;5087968;28;20113;-76
2022/09/17 11:38:19;;;;;;;5.85;0.60;;;;;;;16.05;100.00;101141.22;5055799;28;20036;-77
2022/09/17 11:41:03;;;;;;;2.97;0.68;;;;;;;16.71;100.00;101146.59;5084952;28;20024;-76
2022/09/17 11:43:42;;;;;;;3.15;0.50;;;;;;;16.49;100.00;101147.00;5054314;28;20032;-76
2022/09/17 11:46:19;;;;;;;8.18;1.00;;;;;;;16.32;100.00;101138.50;5083385;28;20025;-76
2022/09/17 11:48:57;;;;;;;5.78;0.57;;;;;;;16.09;100.00;101151.81;5069643;28;20031;-76
2022/09/17 11:51:46;;;;;;;3.92;0.73;;;;;;;16.33;100.00;101154.06;5092951;28;20395;-76
2022/09/17 11:54:44;;;;;;;1.92;0.40;;;;;;;16.47;100.00;101149.06;5088236;28;20558;-76